sensor_id;sensor_type;location;lat;lon;timestamp;pressure;altitude;pressure_sealevel;temperature;humidity
68137;BME280;54939;50.826;9.030;2023-02-04T00:00:25;99876.66;;;6.64;71.88
68137;BME280;54939;50.826;9.030;2023-02-04T00:00:57;99883.81;;;6.63;72.01
68137;BME280;54939;50.826;9.030;2023-02-04T00:01:28;99880.31;;;6.63;72.04
68137;BME280;54939;50.826;9.030;2023-02-04T00:01:59;99873.19;;;6.63;72.05
68137;BME280;54939;50.826;9.030;2023-02-04T00:02:29;99875.72;;;6.65;72.03
68137;BME280;54939;50.826;9.030;2023-02-04T00:02:59;99874.88;;;6.64;71.83
68137;BME280;54939;50.826;9.030;2023-02-04T00:03:29;99874.00;;;6.64;71.64
68137;BME280;54939;50.826;9.030;2023-02-04T00:03:59;99874.00;;;6.64;71.72
68137;BME280;54939;50.826;9.030;2023-02-04T00:04:30;99872.22;;;6.64;71.94
68137;BME280;54939;50.826;9.030;2023-02-04T00:05:00;99871.50;;;6.62;72.33
68137;BME280;54939;50.826;9.030;2023-02-04T00:05:30;99869.56;;;6.64;72.32
68137;BME280;54939;50.826;9.030;2023-02-04T00:06:00;99866.91;;;6.64;71.70
68137;BME280;54939;50.826;9.030;2023-02-04T00:06:30;99870.53;;;6.63;71.99
68137;BME280;54939;50.826;9.030;2023-02-04T00:07:01;99868.84;;;6.62;71.84
68137;BME280;54939;50.826;9.030;2023-02-04T00:07:31;99867.88;;;6.63;71.96
68137;BME280;54939;50.826;9.030;2023-02-04T00:08:01;99868.84;;;6.62;71.91
68137;BME280;54939;50.826;9.030;2023-02-04T00:08:32;99868.84;;;6.62;72.18
68137;BME280;54939;50.826;9.030;2023-02-04T00:09:02;99866.19;;;6.62;71.64
68137;BME280;54939;50.826;9.030;2023-02-04T00:09:32;99866.19;;;6.62;72.22
68137;BME280;54939;50.826;9.030;2023-02-04T00:10:03;99860.88;;;6.62;72.37
68137;BME280;54939;50.826;9.030;2023-02-04T00:10:34;99863.63;;;6.61;72.04
68137;BME280;54939;50.826;9.030;2023-02-04T00:11:04;99867.03;;;6.63;72.26
68137;BME280;54939;50.826;9.030;2023-02-04T00:11:34;99863.53;;;6.62;71.83
68137;BME280;54939;50.826;9.030;2023-02-04T00:12:05;99871.50;;;6.62;71.96
68137;BME280;54939;50.826;9.030;2023-02-04T00:12:35;99868.84;;;6.62;72.09
68137;BME280;54939;50.826;9.030;2023-02-04T00:13:05;99866.19;;;6.62;72.17
68137;BME280;54939;50.826;9.030;2023-02-04T00:13:35;99865.22;;;6.63;71.76
68137;BME280;54939;50.826;9.030;2023-02-04T00:14:05;99865.22;;;6.63;71.78
68137;BME280;54939;50.826;9.030;2023-02-04T00:14:36;99867.03;;;6.63;72.08
68137;BME280;54939;50.826;9.030;2023-02-04T00:15:06;99864.38;;;6.63;71.72
68137;BME280;54939;50.826;9.030;2023-02-04T00:15:36;99868.72;;;6.64;72.07
68137;BME280;54939;50.826;9.030;2023-02-04T00:16:06;99865.22;;;6.63;71.84
68137;BME280;54939;50.826;9.030;2023-02-04T00:16:37;99875.00;;;6.63;71.97
68137;BME280;54939;50.826;9.030;2023-02-04T00:17:07;99876.78;;;6.62;72.30
68137;BME280;54939;50.826;9.030;2023-02-04T00:17:39;99868.84;;;6.62;71.78
68137;BME280;54939;50.826;9.030;2023-02-04T00:18:10;99876.78;;;6.62;72.05
68137;BME280;54939;50.826;9.030;2023-02-04T00:18:40;99876.78;;;6.62;71.99
68137;BME280;54939;50.826;9.030;2023-02-04T00:19:10;99879.44;;;6.62;71.99
68137;BME280;54939;50.826;9.030;2023-02-04T00:19:40;99867.13;;;6.61;71.99
68137;BME280;54939;50.826;9.030;2023-02-04T00:20:11;99881.25;;;6.62;71.81
68137;BME280;54939;50.826;9.030;2023-02-04T00:20:41;99876.78;;;6.62;72.13
68137;BME280;54939;50.826;9.030;2023-02-04T00:21:11;99878.59;;;6.62;72.15
68137;BME280;54939;50.826;9.030;2023-02-04T00:21:41;99873.28;;;6.62;72.10
68137;BME280;54939;50.826;9.030;2023-02-04T00:22:11;99883.03;;;6.61;72.12
68137;BME280;54939;50.826;9.030;2023-02-04T00:22:42;99878.59;;;6.62;72.20
68137;BME280;54939;50.826;9.030;2023-02-04T00:23:12;99884.75;;;6.62;72.25
68137;BME280;54939;50.826;9.030;2023-02-04T00:23:42;99877.75;;;6.61;72.02
68137;BME280;54939;50.826;9.030;2023-02-04T00:24:12;99885.69;;;6.61;72.26
68137;BME280;54939;50.826;9.030;2023-02-04T00:24:42;99882.09;;;6.62;72.22
68137;BME280;54939;50.826;9.030;2023-02-04T00:25:17;99890.16;;;6.61;71.99
68137;BME280;54939;50.826;9.030;2023-02-04T00:25:47;99884.00;;;6.60;72.23
68137;BME280;54939;50.826;9.030;2023-02-04T00:26:17;99876.03;;;6.60;72.21
68137;BME280;54939;50.826;9.030;2023-02-04T00:26:47;99883.13;;;6.60;71.65
68137;BME280;54939;50.826;9.030;2023-02-04T00:27:17;99879.63;;;6.59;71.67
68137;BME280;54939;50.826;9.030;2023-02-04T00:27:48;99876.97;;;6.59;71.87
68137;BME280;54939;50.826;9.030;2023-02-04T00:28:18;99882.28;;;6.59;71.96
68137;BME280;54939;50.826;9.030;2023-02-04T00:28:48;99881.44;;;6.59;72.08
68137;BME280;54939;50.826;9.030;2023-02-04T00:29:18;99867.31;;;6.58;71.95
68137;BME280;54939;50.826;9.030;2023-02-04T00:29:48;99862.94;;;6.57;71.78
68137;BME280;54939;50.826;9.030;2023-02-04T00:30:19;99877.84;;;6.60;71.86
68137;BME280;54939;50.826;9.030;2023-02-04T00:30:49;99876.97;;;6.59;72.07
68137;BME280;54939;50.826;9.030;2023-02-04T00:31:19;99871.66;;;6.59;71.93
68137;BME280;54939;50.826;9.030;2023-02-04T00:31:49;99875.19;;;6.60;72.05
68137;BME280;54939;50.826;9.030;2023-02-04T00:32:19;99874.31;;;6.59;71.67
68137;BME280;54939;50.826;9.030;2023-02-04T00:32:49;99878.69;;;6.60;71.86
68137;BME280;54939;50.826;9.030;2023-02-04T00:33:23;99884.00;;;6.60;71.67
68137;BME280;54939;50.826;9.030;2023-02-04T00:33:53;99883.13;;;6.60;71.92
68137;BME280;54939;50.826;9.030;2023-02-04T00:34:24;99881.34;;;6.60;71.82
68137;BME280;54939;50.826;9.030;2023-02-04T00:34:54;99888.44;;;6.60;71.61
68137;BME280;54939;50.826;9.030;2023-02-04T00:35:24;99882.28;;;6.59;71.50
68137;BME280;54939;50.826;9.030;2023-02-04T00:35:54;99883.13;;;6.60;71.67
68137;BME280;54939;50.826;9.030;2023-02-04T00:36:25;99877.84;;;6.60;71.77
68137;BME280;54939;50.826;9.030;2023-02-04T00:36:55;99869.88;;;6.60;72.00
68137;BME280;54939;50.826;9.030;2023-02-04T00:37:25;99872.53;;;6.60;72.10
68137;BME280;54939;50.826;9.030;2023-02-04T00:37:55;99882.28;;;6.59;72.04
68137;BME280;54939;50.826;9.030;2023-02-04T00:38:26;99886.66;;;6.60;71.83
68137;BME280;54939;50.826;9.030;2023-02-04T00:38:56;99890.16;;;6.61;71.97
68137;BME280;54939;50.826;9.030;2023-02-04T00:39:26;99887.50;;;6.61;71.99
68137;BME280;54939;50.826;9.030;2023-02-04T00:39:56;99891.09;;;6.60;71.88
68137;BME280;54939;50.826;9.030;2023-02-04T00:40:26;99888.44;;;6.60;72.33
68137;BME280;54939;50.826;9.030;2023-02-04T00:40:56;99886.66;;;6.60;71.46
68137;BME280;54939;50.826;9.030;2023-02-04T00:41:26;99887.50;;;6.61;71.93
68137;BME280;54939;50.826;9.030;2023-02-04T00:41:57;99888.34;;;6.61;71.89
68137;BME280;54939;50.826;9.030;2023-02-04T00:42:27;99886.56;;;6.62;71.84
68137;BME280;54939;50.826;9.030;2023-02-04T00:42:57;99886.56;;;6.62;71.87
68137;BME280;54939;50.826;9.030;2023-02-04T00:43:27;99886.66;;;6.60;71.87
68137;BME280;54939;50.826;9.030;2023-02-04T00:43:57;99886.66;;;6.60;71.78
68137;BME280;54939;50.826;9.030;2023-02-04T00:44:28;99892.81;;;6.61;71.67
68137;BME280;54939;50.826;9.030;2023-02-04T00:44:58;99889.28;;;6.60;71.62
68137;BME280;54939;50.826;9.030;2023-02-04T00:45:28;99892.91;;;6.59;71.64
68137;BME280;54939;50.826;9.030;2023-02-04T00:45:58;99886.75;;;6.59;72.06
68137;BME280;54939;50.826;9.030;2023-02-04T00:46:28;99892.91;;;6.59;72.09
68137;BME280;54939;50.826;9.030;2023-02-04T00:46:58;99890.34;;;6.58;72.12
68137;BME280;54939;50.826;9.030;2023-02-04T00:47:29;99894.69;;;6.59;71.75
68137;BME280;54939;50.826;9.030;2023-02-04T00:47:59;99893.84;;;6.58;71.90
68137;BME280;54939;50.826;9.030;2023-02-04T00:48:29;99885.88;;;6.58;71.75
68137;BME280;54939;50.826;9.030;2023-02-04T00:48:59;99894.78;;;6.57;71.61
68137;BME280;54939;50.826;9.030;2023-02-04T00:49:29;99889.38;;;6.59;71.95
68137;BME280;54939;50.826;9.030;2023-02-04T00:50:00;99896.50;;;6.58;71.73
68137;BME280;54939;50.826;9.030;2023-02-04T00:50:30;99894.69;;;6.59;71.64
68137;BME280;54939;50.826;9.030;2023-02-04T00:51:00;99892.91;;;6.59;71.58
68137;BME280;54939;50.826;9.030;2023-02-04T00:51:31;99904.38;;;6.60;71.89
68137;BME280;54939;50.826;9.030;2023-02-04T00:52:01;99895.56;;;6.59;71.82
68137;BME280;54939;50.826;9.030;2023-02-04T00:52:31;99905.31;;;6.59;71.61
68137;BME280;54939;50.826;9.030;2023-02-04T00:53:02;99900.84;;;6.59;72.03
68137;BME280;54939;50.826;9.030;2023-02-04T00:53:33;99902.66;;;6.59;71.68
68137;BME280;54939;50.826;9.030;2023-02-04T00:54:04;99895.56;;;6.59;72.16
68137;BME280;54939;50.826;9.030;2023-02-04T00:54:34;99897.34;;;6.59;71.92
68137;BME280;54939;50.826;9.030;2023-02-04T00:55:05;99902.66;;;6.59;71.84
68137;BME280;54939;50.826;9.030;2023-02-04T00:55:36;99905.41;;;6.57;71.73
68137;BME280;54939;50.826;9.030;2023-02-04T00:56:07;99904.47;;;6.58;71.69
68137;BME280;54939;50.826;9.030;2023-02-04T00:56:37;99903.50;;;6.59;71.92
68137;BME280;54939;50.826;9.030;2023-02-04T00:57:07;99904.47;;;6.58;71.89
68137;BME280;54939;50.826;9.030;2023-02-04T00:57:37;99902.66;;;6.59;72.07
68137;BME280;54939;50.826;9.030;2023-02-04T00:58:08;99901.81;;;6.58;71.70
68137;BME280;54939;50.826;9.030;2023-02-04T00:58:38;99908.81;;;6.59;71.75
68137;BME280;54939;50.826;9.030;2023-02-04T00:59:08;99909.75;;;6.58;72.10
68137;BME280;54939;50.826;9.030;2023-02-04T00:59:38;99900.00;;;6.59;71.94
68137;BME280;54939;50.826;9.030;2023-02-04T01:00:08;99907.97;;;6.59;71.76
68137;BME280;54939;50.826;9.030;2023-02-04T01:00:39;99909.66;;;6.60;71.67
68137;BME280;54939;50.826;9.030;2023-02-04T01:01:09;99903.50;;;6.59;71.63
68137;BME280;54939;50.826;9.030;2023-02-04T01:01:39;99914.13;;;6.59;71.63
68137;BME280;54939;50.826;9.030;2023-02-04T01:02:09;99908.81;;;6.59;71.54
68137;BME280;54939;50.826;9.030;2023-02-04T01:02:40;99907.09;;;6.58;71.71
68137;BME280;54939;50.826;9.030;2023-02-04T01:03:10;99920.38;;;6.58;71.80
68137;BME280;54939;50.826;9.030;2023-02-04T01:03:41;99907.97;;;6.59;71.92
68137;BME280;54939;50.826;9.030;2023-02-04T01:04:11;99912.41;;;6.58;71.59
68137;BME280;54939;50.826;9.030;2023-02-04T01:04:41;99926.53;;;6.59;71.92
68137;BME280;54939;50.826;9.030;2023-02-04T01:05:11;99921.22;;;6.59;71.93
68137;BME280;54939;50.826;9.030;2023-02-04T01:05:41;99921.22;;;6.59;71.86
68137;BME280;54939;50.826;9.030;2023-02-04T01:06:11;99920.38;;;6.58;71.67
68137;BME280;54939;50.826;9.030;2023-02-04T01:06:42;99920.38;;;6.58;71.66
68137;BME280;54939;50.826;9.030;2023-02-04T01:07:12;99923.88;;;6.59;71.59
68137;BME280;54939;50.826;9.030;2023-02-04T01:07:42;99924.75;;;6.59;71.70
68137;BME280;54939;50.826;9.030;2023-02-04T01:08:12;99927.38;;;6.59;71.92
68137;BME280;54939;50.826;9.030;2023-02-04T01:08:42;99925.59;;;6.60;71.82
68137;BME280;54939;50.826;9.030;2023-02-04T01:09:13;99931.75;;;6.60;72.02
68137;BME280;54939;50.826;9.030;2023-02-04T01:09:43;99929.09;;;6.60;71.53
68137;BME280;54939;50.826;9.030;2023-02-04T01:10:13;99938.84;;;6.60;71.77
68137;BME280;54939;50.826;9.030;2023-02-04T01:10:45;99937.16;;;6.59;71.51
68137;BME280;54939;50.826;9.030;2023-02-04T01:11:15;99938.84;;;6.60;71.60
68137;BME280;54939;50.826;9.030;2023-02-04T01:11:45;99933.66;;;6.58;71.52
68137;BME280;54939;50.826;9.030;2023-02-04T01:12:15;99937.06;;;6.60;72.03
68137;BME280;54939;50.826;9.030;2023-02-04T01:12:45;99943.31;;;6.59;71.52
68137;BME280;54939;50.826;9.030;2023-02-04T01:13:15;99938.84;;;6.60;71.52
68137;BME280;54939;50.826;9.030;2023-02-04T01:13:46;99945.00;;;6.60;71.65
68137;BME280;54939;50.826;9.030;2023-02-04T01:14:16;99942.38;;;6.60;71.63
68137;BME280;54939;50.826;9.030;2023-02-04T01:14:46;99937.06;;;6.60;71.58
68137;BME280;54939;50.826;9.030;2023-02-04T01:15:16;99942.38;;;6.60;71.68
68137;BME280;54939;50.826;9.030;2023-02-04T01:15:46;99945.09;;;6.59;71.80
68137;BME280;54939;50.826;9.030;2023-02-04T01:16:16;99945.09;;;6.59;71.64
68137;BME280;54939;50.826;9.030;2023-02-04T01:16:47;99945.97;;;6.59;71.81
68137;BME280;54939;50.826;9.030;2023-02-04T01:17:17;99950.50;;;6.57;71.36
68137;BME280;54939;50.826;9.030;2023-02-04T01:17:48;99949.56;;;6.58;72.01
68137;BME280;54939;50.826;9.030;2023-02-04T01:18:18;99946.91;;;6.58;71.60
68137;BME280;54939;50.826;9.030;2023-02-04T01:18:49;99947.75;;;6.59;71.77
68137;BME280;54939;50.826;9.030;2023-02-04T01:19:19;99956.56;;;6.59;71.77
68137;BME280;54939;50.826;9.030;2023-02-04T01:19:50;99949.69;;;6.57;71.58
68137;BME280;54939;50.826;9.030;2023-02-04T01:20:20;99952.22;;;6.58;71.61
68137;BME280;54939;50.826;9.030;2023-02-04T01:20:50;99950.41;;;6.59;71.72
68137;BME280;54939;50.826;9.030;2023-02-04T01:21:21;99950.31;;;6.60;71.84
68137;BME280;54939;50.826;9.030;2023-02-04T01:21:52;99950.41;;;6.59;72.16
68137;BME280;54939;50.826;9.030;2023-02-04T01:22:22;99953.06;;;6.59;71.47
68137;BME280;54939;50.826;9.030;2023-02-04T01:22:52;99959.22;;;6.59;71.69
68137;BME280;54939;50.826;9.030;2023-02-04T01:23:22;99959.22;;;6.59;71.66
68137;BME280;54939;50.826;9.030;2023-02-04T01:23:52;99958.38;;;6.59;71.61
68137;BME280;54939;50.826;9.030;2023-02-04T01:24:23;99959.22;;;6.59;71.55
68137;BME280;54939;50.826;9.030;2023-02-04T01:24:53;99955.72;;;6.59;71.53
68137;BME280;54939;50.826;9.030;2023-02-04T01:25:23;99948.84;;;6.56;71.34
68137;BME280;54939;50.826;9.030;2023-02-04T01:25:53;99949.56;;;6.58;71.39
68137;BME280;54939;50.826;9.030;2023-02-04T01:26:23;99953.91;;;6.59;71.58
68137;BME280;54939;50.826;9.030;2023-02-04T01:26:53;99947.84;;;6.57;71.40
68137;BME280;54939;50.826;9.030;2023-02-04T01:27:23;99946.06;;;6.58;71.56
68137;BME280;54939;50.826;9.030;2023-02-04T01:27:54;99949.56;;;6.58;71.34
68137;BME280;54939;50.826;9.030;2023-02-04T01:28:24;99954.00;;;6.58;71.79
68137;BME280;54939;50.826;9.030;2023-02-04T01:28:54;99961.88;;;6.59;71.50
68137;BME280;54939;50.826;9.030;2023-02-04T01:29:24;99953.91;;;6.59;71.81
68137;BME280;54939;50.826;9.030;2023-02-04T01:29:54;99961.03;;;6.59;71.69
68137;BME280;54939;50.826;9.030;2023-02-04T01:30:24;99961.88;;;6.59;71.79
68137;BME280;54939;50.826;9.030;2023-02-04T01:30:55;99953.91;;;6.59;71.91
68137;BME280;54939;50.826;9.030;2023-02-04T01:31:25;99953.91;;;6.59;71.82
68137;BME280;54939;50.826;9.030;2023-02-04T01:31:55;99959.22;;;6.59;71.73
68137;BME280;54939;50.826;9.030;2023-02-04T01:32:25;99961.03;;;6.59;71.59
68137;BME280;54939;50.826;9.030;2023-02-04T01:32:56;99961.03;;;6.59;71.47
68137;BME280;54939;50.826;9.030;2023-02-04T01:33:26;99961.88;;;6.59;71.49
68137;BME280;54939;50.826;9.030;2023-02-04T01:33:56;99965.38;;;6.60;71.91
68137;BME280;54939;50.826;9.030;2023-02-04T01:34:26;99960.19;;;6.58;71.64
68137;BME280;54939;50.826;9.030;2023-02-04T01:34:57;99961.88;;;6.59;71.47
68137;BME280;54939;50.826;9.030;2023-02-04T01:35:27;99964.53;;;6.59;71.68
68137;BME280;54939;50.826;9.030;2023-02-04T01:35:57;99959.22;;;6.59;71.70
68137;BME280;54939;50.826;9.030;2023-02-04T01:36:27;99961.88;;;6.59;71.64
68137;BME280;54939;50.826;9.030;2023-02-04T01:36:57;99967.19;;;6.59;71.57
68137;BME280;54939;50.826;9.030;2023-02-04T01:37:28;99961.03;;;6.59;71.46
68137;BME280;54939;50.826;9.030;2023-02-04T01:37:58;99960.94;;;6.60;71.85
68137;BME280;54939;50.826;9.030;2023-02-04T01:38:28;99958.28;;;6.60;72.03
68137;BME280;54939;50.826;9.030;2023-02-04T01:38:58;99960.09;;;6.60;71.43
68137;BME280;54939;50.826;9.030;2023-02-04T01:39:29;99961.03;;;6.59;71.75
68137;BME280;54939;50.826;9.030;2023-02-04T01:40:00;99958.38;;;6.59;71.60
68137;BME280;54939;50.826;9.030;2023-02-04T01:40:30;99963.69;;;6.59;71.77
68137;BME280;54939;50.826;9.030;2023-02-04T01:41:01;99961.88;;;6.59;71.64
68137;BME280;54939;50.826;9.030;2023-02-04T01:41:31;99961.03;;;6.59;71.70
68137;BME280;54939;50.826;9.030;2023-02-04T01:42:02;99969.84;;;6.59;71.39
68137;BME280;54939;50.826;9.030;2023-02-04T01:42:33;99964.53;;;6.59;71.79
68137;BME280;54939;50.826;9.030;2023-02-04T01:43:03;99968.91;;;6.60;71.64
68137;BME280;54939;50.826;9.030;2023-02-04T01:43:33;99972.50;;;6.59;71.38
68137;BME280;54939;50.826;9.030;2023-02-04T01:44:04;99970.69;;;6.60;71.58
68137;BME280;54939;50.826;9.030;2023-02-04T01:44:34;99973.34;;;6.60;71.69
68137;BME280;54939;50.826;9.030;2023-02-04T01:45:05;99976.84;;;6.60;71.67
68137;BME280;54939;50.826;9.030;2023-02-04T01:45:35;99975.16;;;6.59;71.68
68137;BME280;54939;50.826;9.030;2023-02-04T01:46:05;99979.50;;;6.60;71.44
68137;BME280;54939;50.826;9.030;2023-02-04T01:46:36;99978.66;;;6.60;71.57
68137;BME280;54939;50.826;9.030;2023-02-04T01:47:06;99978.66;;;6.60;71.31
68137;BME280;54939;50.826;9.030;2023-02-04T01:47:36;99983.03;;;6.61;71.41
68137;BME280;54939;50.826;9.030;2023-02-04T01:48:06;99978.66;;;6.60;71.46
68137;BME280;54939;50.826;9.030;2023-02-04T01:48:37;99984.81;;;6.60;71.52
68137;BME280;54939;50.826;9.030;2023-02-04T01:49:08;99983.97;;;6.60;71.97
68137;BME280;54939;50.826;9.030;2023-02-04T01:49:39;99978.66;;;6.60;71.84
68137;BME280;54939;50.826;9.030;2023-02-04T01:50:10;99984.81;;;6.60;71.32
68137;BME280;54939;50.826;9.030;2023-02-04T01:50:41;99988.41;;;6.59;71.59
68137;BME280;54939;50.826;9.030;2023-02-04T01:51:12;99987.56;;;6.59;71.33
68137;BME280;54939;50.826;9.030;2023-02-04T01:51:44;99988.41;;;6.59;71.54
68137;BME280;54939;50.826;9.030;2023-02-04T01:52:14;99985.75;;;6.59;71.51
68137;BME280;54939;50.826;9.030;2023-02-04T01:52:44;99983.09;;;6.59;71.69
68137;BME280;54939;50.826;9.030;2023-02-04T01:53:17;99986.72;;;6.58;71.56
68137;BME280;54939;50.826;9.030;2023-02-04T01:53:48;99991.06;;;6.59;71.40
68137;BME280;54939;50.826;9.030;2023-02-04T01:54:18;99983.09;;;6.59;71.31
68137;BME280;54939;50.826;9.030;2023-02-04T01:54:50;99980.47;;;6.59;71.33
68137;BME280;54939;50.826;9.030;2023-02-04T01:55:23;99991.91;;;6.60;71.59
68137;BME280;54939;50.826;9.030;2023-02-04T01:55:54;99986.72;;;6.58;71.42
68137;BME280;54939;50.826;9.030;2023-02-04T01:56:25;99983.09;;;6.59;71.70
68137;BME280;54939;50.826;9.030;2023-02-04T01:56:56;99985.75;;;6.59;71.25
68137;BME280;54939;50.826;9.030;2023-02-04T01:57:26;99985.75;;;6.59;71.34
68137;BME280;54939;50.826;9.030;2023-02-04T01:57:56;99990.13;;;6.60;71.79
68137;BME280;54939;50.826;9.030;2023-02-04T01:58:28;99992.78;;;6.60;71.73
68137;BME280;54939;50.826;9.030;2023-02-04T01:59:00;99992.78;;;6.60;71.44
68137;BME280;54939;50.826;9.030;2023-02-04T01:59:31;99988.41;;;6.59;71.53
68137;BME280;54939;50.826;9.030;2023-02-04T02:00:02;99991.91;;;6.60;71.98
68137;BME280;54939;50.826;9.030;2023-02-04T02:00:32;99996.38;;;6.59;71.92
68137;BME280;54939;50.826;9.030;2023-02-04T02:01:05;99992.00;;;6.58;71.56
68137;BME280;54939;50.826;9.030;2023-02-04T02:01:42;99989.38;;;6.58;71.28
68137;BME280;54939;50.826;9.030;2023-02-04T02:03:01;99993.72;;;6.59;71.47
68137;BME280;54939;50.826;9.030;2023-02-04T02:03:32;99981.41;;;6.58;71.59
68137;BME280;54939;50.826;9.030;2023-02-04T02:04:02;99987.56;;;6.59;71.68
68137;BME280;54939;50.826;9.030;2023-02-04T02:04:33;99981.41;;;6.58;71.30
68137;BME280;54939;50.826;9.030;2023-02-04T02:05:03;99989.38;;;6.58;71.90
68137;BME280;54939;50.826;9.030;2023-02-04T02:05:44;99978.75;;;6.58;71.74
68137;BME280;54939;50.826;9.030;2023-02-04T02:06:15;99979.59;;;6.59;71.72
68137;BME280;54939;50.826;9.030;2023-02-04T02:06:49;99990.22;;;6.59;71.43
68137;BME280;54939;50.826;9.030;2023-02-04T02:07:21;99988.50;;;6.58;71.60
68137;BME280;54939;50.826;9.030;2023-02-04T02:07:52;99987.56;;;6.59;71.49
68137;BME280;54939;50.826;9.030;2023-02-04T02:08:22;99992.00;;;6.58;71.76
68137;BME280;54939;50.826;9.030;2023-02-04T02:08:53;99994.66;;;6.58;71.90
68137;BME280;54939;50.826;9.030;2023-02-04T02:09:24;99992.97;;;6.57;71.56
68137;BME280;54939;50.826;9.030;2023-02-04T02:09:54;99995.63;;;6.57;71.18
68137;BME280;54939;50.826;9.030;2023-02-04T02:10:25;99995.63;;;6.57;71.71
68137;BME280;54939;50.826;9.030;2023-02-04T02:10:55;99998.19;;;6.59;71.59
68137;BME280;54939;50.826;9.030;2023-02-04T02:11:25;99992.88;;;6.59;72.03
68137;BME280;54939;50.826;9.030;2023-02-04T02:11:56;99994.66;;;6.58;71.41
68137;BME280;54939;50.826;9.030;2023-02-04T02:12:26;100006.22;;;6.57;71.25
68137;BME280;54939;50.826;9.030;2023-02-04T02:12:56;99992.00;;;6.58;72.05
68137;BME280;54939;50.826;9.030;2023-02-04T02:13:27;100000.91;;;6.57;72.04
68137;BME280;54939;50.826;9.030;2023-02-04T02:13:57;100003.56;;;6.57;71.39
68137;BME280;54939;50.826;9.030;2023-02-04T02:14:27;99999.97;;;6.58;71.85
68137;BME280;54939;50.826;9.030;2023-02-04T02:14:58;100009.66;;;6.59;71.82
68137;BME280;54939;50.826;9.030;2023-02-04T02:15:28;100010.59;;;6.58;71.79
68137;BME280;54939;50.826;9.030;2023-02-04T02:15:58;99997.31;;;6.58;71.39
68137;BME280;54939;50.826;9.030;2023-02-04T02:16:28;100006.13;;;6.59;71.54
68137;BME280;54939;50.826;9.030;2023-02-04T02:16:59;100009.66;;;6.59;71.35
68137;BME280;54939;50.826;9.030;2023-02-04T02:17:29;100006.13;;;6.59;71.68
68137;BME280;54939;50.826;9.030;2023-02-04T02:17:59;100007.00;;;6.59;71.64
68137;BME280;54939;50.826;9.030;2023-02-04T02:18:29;100008.78;;;6.59;71.73
68137;BME280;54939;50.826;9.030;2023-02-04T02:19:00;100009.66;;;6.59;71.46
68137;BME280;54939;50.826;9.030;2023-02-04T02:19:32;100008.78;;;6.59;71.67
68137;BME280;54939;50.826;9.030;2023-02-04T02:20:06;100006.13;;;6.59;71.60
68137;BME280;54939;50.826;9.030;2023-02-04T02:20:37;100013.25;;;6.58;71.31
68137;BME280;54939;50.826;9.030;2023-02-04T02:21:08;100013.25;;;6.58;71.56
68137;BME280;54939;50.826;9.030;2023-02-04T02:21:42;100014.09;;;6.59;71.30
68137;BME280;54939;50.826;9.030;2023-02-04T02:22:16;100013.25;;;6.58;71.90
68137;BME280;54939;50.826;9.030;2023-02-04T02:22:52;100018.47;;;6.60;71.75
68137;BME280;54939;50.826;9.030;2023-02-04T02:24:23;100023.00;;;6.58;71.66
68137;BME280;54939;50.826;9.030;2023-02-04T02:24:53;100015.91;;;6.58;71.71
68137;BME280;54939;50.826;9.030;2023-02-04T02:25:23;100013.25;;;6.58;71.62
68137;BME280;54939;50.826;9.030;2023-02-04T02:25:54;100016.84;;;6.57;72.04
68137;BME280;54939;50.826;9.030;2023-02-04T02:26:24;100014.09;;;6.59;71.79
68137;BME280;54939;50.826;9.030;2023-02-04T02:26:55;100016.75;;;6.59;71.53
68137;BME280;54939;50.826;9.030;2023-02-04T02:27:25;100015.91;;;6.58;71.75
68137;BME280;54939;50.826;9.030;2023-02-04T02:27:56;100015.81;;;6.60;71.74
68137;BME280;54939;50.826;9.030;2023-02-04T02:28:27;100010.59;;;6.58;71.47
68137;BME280;54939;50.826;9.030;2023-02-04T02:28:57;100014.09;;;6.59;71.70
68137;BME280;54939;50.826;9.030;2023-02-04T02:29:27;100011.44;;;6.59;71.62
68137;BME280;54939;50.826;9.030;2023-02-04T02:29:58;100010.59;;;6.58;71.39
68137;BME280;54939;50.826;9.030;2023-02-04T02:30:28;100012.28;;;6.59;71.47
68137;BME280;54939;50.826;9.030;2023-02-04T02:30:58;100015.91;;;6.58;71.54
68137;BME280;54939;50.826;9.030;2023-02-04T02:31:29;100008.88;;;6.57;71.81
68137;BME280;54939;50.826;9.030;2023-02-04T02:31:59;100008.88;;;6.57;71.61
68137;BME280;54939;50.826;9.030;2023-02-04T02:32:30;100020.25;;;6.59;71.63
68137;BME280;54939;50.826;9.030;2023-02-04T02:33:00;100015.91;;;6.58;71.85
68137;BME280;54939;50.826;9.030;2023-02-04T02:33:30;100017.69;;;6.58;71.47
68137;BME280;54939;50.826;9.030;2023-02-04T02:34:00;100016.00;;;6.57;71.52
68137;BME280;54939;50.826;9.030;2023-02-04T02:34:30;100026.63;;;6.57;71.70
68137;BME280;54939;50.826;9.030;2023-02-04T02:35:01;100021.31;;;6.57;71.55
68137;BME280;54939;50.826;9.030;2023-02-04T02:35:32;100024.81;;;6.57;71.35
68137;BME280;54939;50.826;9.030;2023-02-04T02:36:02;100020.25;;;6.59;71.66
68137;BME280;54939;50.826;9.030;2023-02-04T02:36:33;100030.00;;;6.59;71.47
68137;BME280;54939;50.826;9.030;2023-02-04T02:37:03;100031.81;;;6.58;71.60
68137;BME280;54939;50.826;9.030;2023-02-04T02:37:34;100031.72;;;6.60;71.59
68137;BME280;54939;50.826;9.030;2023-02-04T02:38:05;100030.88;;;6.59;71.75
68137;BME280;54939;50.826;9.030;2023-02-04T02:38:35;100030.00;;;6.59;71.47
68137;BME280;54939;50.826;9.030;2023-02-04T02:39:05;100024.72;;;6.59;71.86
68137;BME280;54939;50.826;9.030;2023-02-04T02:39:39;100030.88;;;6.59;71.71
68137;BME280;54939;50.826;9.030;2023-02-04T02:40:10;100028.31;;;6.58;71.39
68137;BME280;54939;50.826;9.030;2023-02-04T02:40:40;100029.16;;;6.58;71.45
68137;BME280;54939;50.826;9.030;2023-02-04T02:41:11;100024.81;;;6.57;71.85
68137;BME280;54939;50.826;9.030;2023-02-04T02:41:41;100029.16;;;6.58;71.76
68137;BME280;54939;50.826;9.030;2023-02-04T02:42:13;100029.16;;;6.58;71.61
68137;BME280;54939;50.826;9.030;2023-02-04T02:42:44;100029.16;;;6.58;71.71
68137;BME280;54939;50.826;9.030;2023-02-04T02:43:20;100033.63;;;6.58;71.82
68137;BME280;54939;50.826;9.030;2023-02-04T02:43:51;100027.38;;;6.59;71.92
68137;BME280;54939;50.826;9.030;2023-02-04T02:44:22;100034.47;;;6.58;71.49
68137;BME280;54939;50.826;9.030;2023-02-04T02:44:52;100035.31;;;6.59;71.75
68137;BME280;54939;50.826;9.030;2023-02-04T02:45:26;100030.00;;;6.59;71.33
68137;BME280;54939;50.826;9.030;2023-02-04T02:45:57;100032.66;;;6.59;71.86